createdAt,value
2019-04-16T00:01:34.001Z,6.57
2019-04-16T00:04:12.526Z,6.27
2019-04-16T00:07:08.024Z,6.10
2019-04-16T00:09:51.553Z,6.13
2019-04-16T00:12:28.682Z,7.20
2019-04-16T00:14:58.563Z,6.60
2019-04-16T00:17:27.264Z,6.67
2019-04-16T00:19:53.913Z,7.10
2019-04-16T00:22:36.828Z,6.80
2019-04-16T00:25:07.183Z,6.37
2019-04-16T00:27:37.427Z,6.97
2019-04-16T00:30:05.581Z,6.70
2019-04-16T00:32:34.156Z,6.53
2019-04-16T00:35:01.553Z,6.30
2019-04-16T00:37:28.694Z,6.83
2019-04-16T00:39:59.928Z,6.73
2019-04-16T00:42:27.074Z,7.43
2019-04-16T00:45:02.732Z,6.53
2019-04-16T00:47:29.703Z,6.73
2019-04-16T00:50:00.396Z,6.37
2019-04-16T00:52:27.753Z,6.37
2019-04-16T00:54:54.505Z,6.80
2019-04-16T00:57:22.345Z,6.83
2019-04-16T00:59:49.332Z,6.60
2019-04-16T01:02:18.552Z,7.27
2019-04-16T01:04:46.901Z,7.40
2019-04-16T01:07:14.435Z,6.80
2019-04-16T01:09:41.874Z,6.30
2019-04-16T01:12:08.741Z,7.37
2019-04-16T01:14:37.332Z,7.00
2019-04-16T01:17:05.307Z,7.20
2019-04-16T01:19:33.372Z,7.10
2019-04-16T01:21:59.939Z,6.83
2019-04-16T01:24:27.844Z,7.30
2019-04-16T01:26:55.370Z,7.23
2019-04-16T01:29:23.089Z,7.10
2019-04-16T01:32:11.522Z,7.53
2019-04-16T01:34:59.924Z,6.63
2019-04-16T01:37:46.818Z,7.43
2019-04-16T01:40:19.385Z,7.10
2019-04-16T01:42:57.637Z,6.83
2019-04-16T01:45:29.615Z,6.90
2019-04-16T01:47:58.239Z,8.07
2019-04-16T01:50:24.719Z,7.57
2019-04-16T01:52:53.204Z,7.20
2019-04-16T01:55:25.487Z,6.80
2019-04-16T01:57:49.621Z,7.30
2019-04-16T02:00:19.705Z,6.93
2019-04-16T02:02:49.429Z,7.57
2019-04-16T02:05:20.345Z,7.70
2019-04-16T02:07:47.809Z,7.33
2019-04-16T02:10:17.282Z,8.50
2019-04-16T02:12:49.064Z,7.87
2019-04-16T02:15:15.909Z,7.50
2019-04-16T02:17:45.996Z,7.53
2019-04-16T02:20:15.316Z,8.50
2019-04-16T02:22:42.326Z,7.27
2019-04-16T02:25:13.566Z,6.53
2019-04-16T02:27:40.230Z,7.03
2019-04-16T02:30:10.166Z,7.73
2019-04-16T02:32:39.701Z,6.87
2019-04-16T02:35:09.903Z,7.30
2019-04-16T02:37:40.053Z,8.13
2019-04-16T02:40:07.105Z,6.87
2019-04-16T02:42:33.694Z,7.33
2019-04-16T02:45:10.345Z,7.43
2019-04-16T02:47:41.770Z,8.07
2019-04-16T02:50:12.174Z,7.47
2019-04-16T02:53:00.524Z,8.73
2019-04-16T02:55:42.910Z,9.63
2019-04-16T02:58:19.463Z,10.07
2019-04-16T03:01:12.528Z,9.60
2019-04-16T03:03:43.614Z,8.40
2019-04-16T03:06:11.969Z,8.93
2019-04-16T03:08:38.835Z,10.37
2019-04-16T03:11:06.175Z,10.03
2019-04-16T03:13:32.790Z,9.50
2019-04-16T03:16:21.908Z,9.47
2019-04-16T03:19:08.623Z,9.47
2019-04-16T03:21:36.219Z,9.53
2019-04-16T03:24:07.988Z,9.77
2019-04-16T03:26:33.474Z,10.40
2019-04-16T03:29:00.334Z,9.33
2019-04-16T03:31:27.192Z,9.97
2019-04-16T03:33:54.243Z,9.87
2019-04-16T03:36:20.932Z,9.60
2019-04-16T03:38:47.820Z,8.80
2019-04-16T03:41:14.684Z,9.50
2019-04-16T03:43:41.259Z,9.77
2019-04-16T03:46:12.105Z,10.10
2019-04-16T03:48:36.645Z,9.90
2019-04-16T03:51:04.740Z,9.97
2019-04-16T03:53:33.869Z,10.03
2019-04-16T03:56:00.981Z,10.17
2019-04-16T03:58:29.185Z,10.03
2019-04-16T04:00:56.113Z,9.83
2019-04-16T04:03:26.072Z,9.97
2019-04-16T04:05:55.536Z,10.37
2019-04-16T04:08:22.518Z,10.63
2019-04-16T04:10:49.725Z,8.70
2019-04-16T04:13:18.367Z,10.10
2019-04-16T04:15:45.360Z,9.10
2019-04-16T04:18:12.888Z,9.43
2019-04-16T04:20:40.399Z,8.67
2019-04-16T04:23:08.533Z,10.23
2019-04-16T04:25:36.957Z,10.13
2019-04-16T04:28:04.030Z,8.90
2019-04-16T04:30:36.275Z,9.50
2019-04-16T04:33:07.536Z,7.90
2019-04-16T04:35:36.627Z,8.53
2019-04-16T04:38:06.399Z,9.63
2019-04-16T04:40:44.308Z,9.23
2019-04-16T04:43:02.320Z,8.93
2019-04-16T04:45:29.198Z,8.57
2019-04-16T04:47:57.287Z,8.83
2019-04-16T04:50:24.104Z,8.67
2019-04-16T04:52:51.044Z,9.67
2019-04-16T04:55:17.676Z,11.30
2019-04-16T04:57:48.031Z,10.53
2019-04-16T05:00:16.914Z,10.87
2019-04-16T05:02:44.439Z,9.97
2019-04-16T05:05:25.564Z,10.13
2019-04-16T05:07:52.257Z,10.13
2019-04-16T05:10:19.008Z,9.27
2019-04-16T05:12:45.637Z,9.27
2019-04-16T05:15:15.206Z,9.13
2019-04-16T05:17:41.796Z,9.73
2019-04-16T05:20:08.690Z,8.63
2019-04-16T05:22:35.270Z,10.10
2019-04-16T05:25:02.623Z,9.10
2019-04-16T05:27:29.664Z,8.83
2019-04-16T05:29:56.971Z,8.23
2019-04-16T05:32:26.012Z,9.23
2019-04-16T05:34:53.545Z,8.73
2019-04-16T05:37:20.936Z,9.63
2019-04-16T05:39:47.863Z,9.53
2019-04-16T05:42:14.900Z,9.10
2019-04-16T05:44:41.939Z,9.90
2019-04-16T05:47:09.943Z,10.00
2019-04-16T05:49:36.901Z,9.67
2019-04-16T05:52:04.261Z,10.17
2019-04-16T05:54:57.601Z,10.03
2019-04-16T05:57:27.650Z,11.13
2019-04-16T05:59:55.423Z,8.97
2019-04-16T06:02:27.591Z,9.77
2019-04-16T06:04:55.967Z,9.37
2019-04-16T06:07:22.891Z,10.00
2019-04-16T06:09:49.547Z,9.67
2019-04-16T06:12:16.907Z,9.27
2019-04-16T06:14:49.747Z,9.00
2019-04-16T06:17:35.179Z,9.13
2019-04-16T06:20:27.133Z,10.00
2019-04-16T06:23:31.953Z,10.37
2019-04-16T06:26:17.145Z,9.10
2019-04-16T06:28:56.386Z,9.70
2019-04-16T06:31:42.338Z,9.97
2019-04-16T06:34:27.676Z,9.13
2019-04-16T06:37:02.088Z,9.57
2019-04-16T06:39:35.822Z,10.50
2019-04-16T06:42:38.573Z,9.67
2019-04-16T06:45:16.140Z,10.13
2019-04-16T06:47:55.534Z,9.07
2019-04-16T06:50:39.610Z,10.43
2019-04-16T06:53:15.307Z,10.40
2019-04-16T06:55:59.681Z,9.27
2019-04-16T06:58:50.278Z,10.03
2019-04-16T07:01:15.911Z,11.00
2019-04-16T07:03:48.291Z,9.40
2019-04-16T07:06:35.957Z,9.63
2019-04-16T07:09:23.380Z,10.00
2019-04-16T07:11:54.625Z,10.93
2019-04-16T07:14:18.386Z,10.10
2019-04-16T07:16:45.025Z,10.40
2019-04-16T07:19:17.680Z,10.97
2019-04-16T07:21:49.641Z,10.13
2019-04-16T07:24:16.104Z,10.17
2019-04-16T07:26:46.404Z,9.93
2019-04-16T07:29:24.745Z,11.10
2019-04-16T07:32:01.071Z,10.33
2019-04-16T07:34:41.212Z,10.07
2019-04-16T07:37:14.698Z,10.07
2019-04-16T07:39:56.813Z,9.27
2019-04-16T07:42:29.051Z,9.40
2019-04-16T07:45:12.597Z,10.10
2019-04-16T07:47:51.624Z,9.83
2019-04-16T07:50:32.263Z,10.03
2019-04-16T07:53:13.321Z,9.90
2019-04-16T07:55:44.676Z,9.87
2019-04-16T07:58:11.475Z,9.53
2019-04-16T08:00:41.392Z,10.43
2019-04-16T08:03:06.657Z,10.27
2019-04-16T08:05:33.251Z,10.10
2019-04-16T08:08:00.057Z,9.53
2019-04-16T08:10:27.814Z,10.20
2019-04-16T08:13:05.181Z,10.40
2019-04-16T08:15:31.939Z,10.23
2019-04-16T08:17:58.632Z,9.10
2019-04-16T08:20:25.706Z,9.93
2019-04-16T08:22:56.187Z,10.73
2019-04-16T08:25:26.347Z,9.70
2019-04-16T08:27:55.073Z,10.50
2019-04-16T08:30:22.700Z,9.93
2019-04-16T08:32:51.527Z,9.70
2019-04-16T08:35:18.517Z,10.47
2019-04-16T08:37:49.346Z,9.77
2019-04-16T08:40:16.976Z,10.17
2019-04-16T08:42:45.176Z,10.90
2019-04-16T08:45:13.356Z,10.67
2019-04-16T08:47:44.514Z,11.27
2019-04-16T08:50:11.751Z,11.17
2019-04-16T08:52:38.557Z,10.30
2019-04-16T08:55:07.087Z,9.93
2019-04-16T08:57:40.627Z,10.10
2019-04-16T09:00:15.229Z,9.77
2019-04-16T09:02:42.054Z,10.00
2019-04-16T09:05:11.532Z,10.00
2019-04-16T09:07:40.606Z,9.73
2019-04-16T09:10:20.277Z,10.47
2019-04-16T09:13:01.954Z,10.87
2019-04-16T09:15:34.415Z,10.47
2019-04-16T09:18:27.717Z,9.90
2019-04-16T09:20:54.625Z,10.93
2019-04-16T09:23:22.785Z,9.97
2019-04-16T09:26:12.385Z,10.37
2019-04-16T09:28:39.221Z,9.40
2019-04-16T09:31:28.824Z,9.60
2019-04-16T09:33:59.210Z,9.90
2019-04-16T09:36:36.345Z,9.83
2019-04-16T09:39:12.577Z,10.63
2019-04-16T09:41:42.233Z,9.40
2019-04-16T09:44:09.052Z,11.10
2019-04-16T09:46:52.336Z,10.73
2019-04-16T09:49:05.958Z,10.03
2019-04-16T09:51:33.130Z,10.30
2019-04-16T09:54:00.180Z,10.57
2019-04-16T09:56:31.496Z,11.30
2019-04-16T09:59:31.416Z,10.07
2019-04-16T10:02:07.337Z,10.70
2019-04-16T10:04:36.649Z,11.20
2019-04-16T10:07:05.658Z,10.40
2019-04-16T10:09:37.157Z,11.87
2019-04-16T10:12:04.975Z,10.50
2019-04-16T10:14:33.060Z,10.43
2019-04-16T10:16:59.907Z,11.10
2019-04-16T10:19:26.473Z,10.63
2019-04-16T10:21:54.236Z,11.00
2019-04-16T10:24:39.978Z,11.30
2019-04-16T10:27:08.302Z,10.17
2019-04-16T10:29:34.880Z,10.07
2019-04-16T10:32:01.874Z,10.70
2019-04-16T10:34:28.484Z,10.77
2019-04-16T10:36:55.179Z,11.67
2019-04-16T10:39:41.692Z,11.87
2019-04-16T10:42:31.388Z,11.10
2019-04-16T10:45:09.545Z,11.10
2019-04-16T10:48:00.565Z,11.37
2019-04-16T10:51:15.506Z,10.97
2019-04-16T10:54:05.504Z,10.40
2019-04-16T10:56:56.810Z,10.23
2019-04-16T10:59:46.034Z,10.10
2019-04-16T11:02:36.090Z,12.23
2019-04-16T11:05:15.334Z,11.13
2019-04-16T11:07:48.101Z,10.97
2019-04-16T11:10:17.965Z,9.80
2019-04-16T11:12:45.616Z,11.50
2019-04-16T11:15:26.403Z,11.30
2019-04-16T11:18:02.112Z,10.60
2019-04-16T11:20:32.225Z,10.83
2019-04-16T11:23:08.131Z,12.83
2019-04-16T11:25:37.474Z,12.47
2019-04-16T11:28:06.100Z,13.33
2019-04-16T11:30:36.878Z,11.90
2019-04-16T11:33:05.101Z,12.87
2019-04-16T11:35:36.408Z,12.67
2019-04-16T11:38:05.768Z,12.50
2019-04-16T11:40:36.206Z,12.50
2019-04-16T11:43:04.551Z,12.20
2019-04-16T11:45:31.571Z,11.17
2019-04-16T11:47:58.877Z,10.97
2019-04-16T11:50:26.216Z,11.43
2019-04-16T11:52:58.200Z,12.33
2019-04-16T11:55:24.262Z,12.70
2019-04-16T11:57:51.278Z,12.57
2019-04-16T12:00:50.438Z,12.10
2019-04-16T12:03:34.995Z,14.37
2019-04-16T12:06:32.282Z,13.00
2019-04-16T12:09:21.488Z,11.87
2019-04-16T12:12:13.059Z,12.00
2019-04-16T12:15:15.324Z,12.20
2019-04-16T12:18:00.100Z,12.43
2019-04-16T12:20:45.328Z,11.63
2019-04-16T12:23:28.343Z,12.03
2019-04-16T12:26:16.485Z,12.17
2019-04-16T12:28:59.029Z,11.70
2019-04-16T12:31:48.045Z,11.97
2019-04-16T12:34:27.158Z,12.23
2019-04-16T12:37:06.682Z,11.60
2019-04-16T12:39:45.868Z,12.67
2019-04-16T12:42:42.241Z,12.37
2019-04-16T12:45:21.135Z,11.43
2019-04-16T12:47:58.964Z,12.83
2019-04-16T12:50:39.740Z,12.47
2019-04-16T12:53:10.926Z,11.33
2019-04-16T12:55:57.245Z,11.93
2019-04-16T12:58:38.679Z,11.83
2019-04-16T13:01:26.252Z,11.83
2019-04-16T13:04:07.705Z,10.97
2019-04-16T13:06:42.595Z,12.03
2019-04-16T13:09:29.503Z,12.07
2019-04-16T13:12:14.176Z,12.40
2019-04-16T13:15:11.992Z,12.20
2019-04-16T13:18:02.519Z,11.90
2019-04-16T13:20:48.379Z,12.33
2019-04-16T13:23:22.640Z,12.40
2019-04-16T13:25:58.748Z,11.93
2019-04-16T13:28:25.500Z,12.33
2019-04-16T13:30:52.106Z,12.77
2019-04-16T13:33:21.476Z,12.27
2019-04-16T13:35:48.959Z,12.83
2019-04-16T13:38:18.375Z,13.20
2019-04-16T13:40:45.741Z,13.27
2019-04-16T13:43:15.631Z,12.80
2019-04-16T13:45:42.754Z,13.20
2019-04-16T13:48:28.209Z,13.23
2019-04-16T13:51:01.083Z,11.30
2019-04-16T13:53:51.137Z,12.87
2019-04-16T13:56:25.254Z,11.70
2019-04-16T13:59:21.916Z,13.23
2019-04-16T14:01:59.009Z,11.90
2019-04-16T14:04:30.587Z,13.00
2019-04-16T14:06:56.348Z,12.33
2019-04-16T14:09:26.179Z,12.10
2019-04-16T14:11:53.465Z,12.30
2019-04-16T14:14:22.574Z,11.90
2019-04-16T14:16:49.453Z,11.73
2019-04-16T14:19:16.378Z,12.40
2019-04-16T14:21:45.074Z,13.50
2019-04-16T14:24:12.917Z,12.20
2019-04-16T14:26:41.285Z,12.87
2019-04-16T14:29:09.033Z,13.13
2019-04-16T14:31:36.578Z,11.90
2019-04-16T14:34:23.108Z,12.37
2019-04-16T14:36:50.134Z,12.47
2019-04-16T14:39:34.442Z,12.33
2019-04-16T14:42:01.852Z,12.40
2019-04-16T14:44:34.620Z,12.37
2019-04-16T14:47:02.228Z,12.90
2019-04-16T14:49:30.987Z,12.50
2019-04-16T14:52:02.105Z,12.83
2019-04-16T14:54:31.850Z,12.23
2019-04-16T14:57:00.152Z,11.80
2019-04-16T14:59:50.870Z,13.27
2019-04-16T15:02:40.128Z,12.07
2019-04-16T15:05:27.939Z,12.07
2019-04-16T15:08:12.622Z,12.33
2019-04-16T15:11:04.885Z,11.33
2019-04-16T15:13:54.365Z,12.43
2019-04-16T15:16:37.200Z,12.50
2019-04-16T15:19:30.596Z,11.27
2019-04-16T15:22:20.047Z,11.77
2019-04-16T15:25:15.196Z,12.30
2019-04-16T15:27:54.849Z,11.83
2019-04-16T15:30:40.295Z,12.33
2019-04-16T15:33:25.489Z,12.00
2019-04-16T15:35:56.475Z,11.97
2019-04-16T15:38:37.854Z,12.20
2019-04-16T15:41:17.608Z,12.40
2019-04-16T15:43:54.766Z,12.83
2019-04-16T15:46:51.112Z,10.60
2019-04-16T15:49:34.661Z,11.83
2019-04-16T15:52:30.303Z,11.00
2019-04-16T15:55:24.220Z,12.10
2019-04-16T15:58:04.925Z,12.93
2019-04-16T16:01:07.051Z,12.00
2019-04-16T16:03:57.494Z,11.70
2019-04-16T16:06:32.543Z,11.00
2019-04-16T16:09:07.478Z,12.17
2019-04-16T16:11:48.142Z,11.57
2019-04-16T16:14:18.180Z,11.17
2019-04-16T16:16:50.795Z,12.27
2019-04-16T16:19:21.179Z,10.87
2019-04-16T16:21:54.117Z,11.37
2019-04-16T16:24:23.940Z,11.07
2019-04-16T16:26:52.035Z,11.20
2019-04-16T16:29:20.009Z,11.80
2019-04-16T16:31:50.984Z,10.83
2019-04-16T16:34:21.433Z,11.87
2019-04-16T16:36:51.586Z,11.83
2019-04-16T16:39:18.509Z,12.70
2019-04-16T16:41:46.659Z,12.10
2019-04-16T16:44:14.127Z,11.53
2019-04-16T16:47:12.679Z,11.33
2019-04-16T16:49:39.881Z,11.63
2019-04-16T16:52:27.276Z,12.07
2019-04-16T16:54:55.643Z,11.53
2019-04-16T16:57:40.606Z,13.33
2019-04-16T17:00:26.390Z,10.87
2019-04-16T17:02:57.941Z,11.50
2019-04-16T17:05:31.696Z,12.17
2019-04-16T17:07:59.886Z,11.23
2019-04-16T17:10:27.124Z,11.77
2019-04-16T17:12:56.147Z,11.67
2019-04-16T17:15:23.774Z,11.73
2019-04-16T17:17:50.849Z,11.57
2019-04-16T17:20:34.690Z,12.23
2019-04-16T17:23:02.131Z,11.50
2019-04-16T17:25:36.090Z,11.77
2019-04-16T17:27:58.025Z,11.67
2019-04-16T17:30:25.854Z,12.57
2019-04-16T17:32:52.806Z,11.40
2019-04-16T17:35:23.230Z,12.90
2019-04-16T17:37:51.392Z,12.77
2019-04-16T17:40:43.840Z,12.93
2019-04-16T17:43:40.277Z,12.50
2019-04-16T17:46:27.582Z,12.07
2019-04-16T17:49:12.913Z,11.50
2019-04-16T17:52:20.121Z,12.33
2019-04-16T17:55:11.747Z,11.20
2019-04-16T17:57:53.491Z,12.07
2019-04-16T18:00:48.435Z,12.33
2019-04-16T18:03:28.176Z,12.03
2019-04-16T18:06:16.841Z,12.10
2019-04-16T18:08:59.899Z,12.17
2019-04-16T18:11:44.799Z,12.63
2019-04-16T18:14:34.177Z,11.03
2019-04-16T18:17:15.190Z,11.47
2019-04-16T18:20:02.812Z,11.93
2019-04-16T18:22:36.215Z,10.90
2019-04-16T18:25:23.623Z,11.43
2019-04-16T18:28:04.228Z,10.33
2019-04-16T18:30:43.211Z,10.63
2019-04-16T18:33:15.839Z,11.27
2019-04-16T18:35:53.678Z,10.33
2019-04-16T18:38:43.388Z,10.50
2019-04-16T18:41:16.507Z,10.33
2019-04-16T18:44:14.733Z,10.50
2019-04-16T18:47:05.046Z,10.10
2019-04-16T18:49:33.351Z,10.87
2019-04-16T18:52:05.365Z,9.90
2019-04-16T18:54:31.286Z,10.23
2019-04-16T18:56:59.137Z,10.97
2019-04-16T18:59:26.104Z,10.37
2019-04-16T19:01:59.084Z,10.20
2019-04-16T19:04:26.280Z,10.43
2019-04-16T19:06:53.527Z,10.80
2019-04-16T19:09:21.348Z,10.43
2019-04-16T19:11:51.566Z,9.93
2019-04-16T19:14:20.361Z,11.40
2019-04-16T19:16:47.275Z,9.83
2019-04-16T19:19:14.246Z,9.70
2019-04-16T19:21:42.542Z,10.23
2019-04-16T19:24:09.602Z,10.63
2019-04-16T19:26:36.428Z,10.20
2019-04-16T19:29:05.525Z,10.13
2019-04-16T19:31:32.764Z,10.53
2019-04-16T19:33:59.470Z,9.67
2019-04-16T19:36:27.549Z,10.73
2019-04-16T19:38:56.887Z,10.13
2019-04-16T19:41:24.822Z,10.00
2019-04-16T19:43:54.462Z,9.77
2019-04-16T19:46:22.423Z,10.07
2019-04-16T19:48:51.258Z,8.97
2019-04-16T19:51:19.817Z,10.30
2019-04-16T19:53:48.580Z,9.67
2019-04-16T19:56:15.497Z,8.87
2019-04-16T19:58:46.744Z,9.53
2019-04-16T20:01:13.840Z,9.23
2019-04-16T20:03:43.590Z,9.60
2019-04-16T20:06:10.496Z,9.40
2019-04-16T20:08:39.937Z,9.47
2019-04-16T20:11:06.951Z,8.83
2019-04-16T20:13:34.125Z,8.83
2019-04-16T20:16:04.072Z,9.20
2019-04-16T20:18:31.438Z,8.77
2019-04-16T20:21:01.476Z,9.63
2019-04-16T20:23:30.090Z,9.63
2019-04-16T20:26:00.404Z,8.70
2019-04-16T20:28:27.005Z,8.80
2019-04-16T20:31:01.365Z,8.67
2019-04-16T20:33:23.006Z,8.73
2019-04-16T20:35:50.671Z,8.37
2019-04-16T20:38:18.390Z,9.07
2019-04-16T20:40:45.481Z,8.47
2019-04-16T20:43:12.088Z,8.93
2019-04-16T20:45:38.736Z,8.70
2019-04-16T20:48:08.798Z,9.77
2019-04-16T20:50:34.939Z,9.03
2019-04-16T20:53:06.513Z,9.30
2019-04-16T20:55:30.772Z,8.27
2019-04-16T20:58:00.033Z,9.20
2019-04-16T21:00:29.020Z,8.67
2019-04-16T21:02:55.998Z,8.17
2019-04-16T21:05:23.713Z,7.97
2019-04-16T21:08:04.637Z,9.03
2019-04-16T21:10:36.436Z,8.23
2019-04-16T21:13:03.652Z,8.37
2019-04-16T21:15:36.673Z,7.77
2019-04-16T21:18:03.786Z,7.43
2019-04-16T21:20:31.070Z,8.23
2019-04-16T21:23:01.533Z,7.60
2019-04-16T21:25:27.358Z,7.63
2019-04-16T21:28:06.222Z,7.87
2019-04-16T21:30:33.122Z,8.17
2019-04-16T21:33:23.202Z,7.43
2019-04-16T21:35:52.595Z,8.13
2019-04-16T21:38:31.057Z,7.60
2019-04-16T21:40:57.849Z,9.30
2019-04-16T21:44:13.197Z,9.87
2019-04-16T21:46:40.555Z,10.70
2019-04-16T21:49:08.884Z,9.73
2019-04-16T21:51:38.648Z,11.33
2019-04-16T21:54:06.787Z,10.53
2019-04-16T21:56:36.820Z,11.03
2019-04-16T21:59:04.720Z,10.80
2019-04-16T22:01:37.282Z,10.87
2019-04-16T22:04:13.223Z,10.67
2019-04-16T22:06:39.956Z,11.93
2019-04-16T22:09:13.437Z,13.17
2019-04-16T22:11:43.451Z,14.73
2019-04-16T22:14:08.975Z,15.13
2019-04-16T22:16:39.402Z,12.47
2019-04-16T22:19:06.105Z,12.50
2019-04-16T22:21:32.767Z,13.67
2019-04-16T22:23:59.811Z,12.20
2019-04-16T22:26:26.670Z,12.00
2019-04-16T22:28:53.271Z,10.93
2019-04-16T22:31:23.802Z,12.80
2019-04-16T22:33:49.691Z,11.33
2019-04-16T22:36:16.272Z,11.17
2019-04-16T22:38:46.101Z,10.93
2019-04-16T22:41:27.307Z,11.10
2019-04-16T22:44:10.610Z,11.40
2019-04-16T22:46:41.845Z,10.73
2019-04-16T22:49:08.686Z,11.50
2019-04-16T22:51:35.371Z,9.77
2019-04-16T22:54:02.982Z,10.90
2019-04-16T22:56:47.607Z,11.20
2019-04-16T22:59:14.183Z,9.63
2019-04-16T23:01:44.897Z,11.83
2019-04-16T23:04:12.278Z,11.70
2019-04-16T23:06:39.035Z,10.83
2019-04-16T23:09:06.068Z,10.57
2019-04-16T23:11:32.873Z,11.60
2019-04-16T23:14:02.523Z,11.50
2019-04-16T23:16:28.293Z,10.63
2019-04-16T23:18:54.803Z,11.10
2019-04-16T23:21:21.337Z,11.63
2019-04-16T23:23:51.484Z,11.87
2019-04-16T23:26:19.534Z,11.80
2019-04-16T23:28:46.363Z,12.00
2019-04-16T23:31:13.034Z,11.20
2019-04-16T23:33:39.759Z,10.13
2019-04-16T23:36:07.368Z,12.73
2019-04-16T23:38:34.234Z,11.63
2019-04-16T23:41:00.823Z,10.83
2019-04-16T23:43:36.966Z,10.60
2019-04-16T23:46:21.861Z,10.00
2019-04-16T23:49:20.029Z,11.17
2019-04-16T23:51:53.847Z,11.37
2019-04-16T23:54:40.702Z,11.33
2019-04-16T23:57:24.879Z,12.20
